Country
Station

 

Weather  for  Seoul/Kimp'O International Airport  -  Korea (Republic of)    Korea (Republic of)

  
20 °C (68 °F)
    
 
 

Current METAR for Seoul/Kimp'O International Airport is :

RKSS 021100Z 23009KT 180V260 9999 BKN020 OVC080 20/13 Q1005 NOSIG

 

This is a report for Seoul/Kimp'O International Airport - Korea (Republic of).
 
The report was made 20 minutes ago, at 11:00 UTC .
The wind was blowing at a speed of 4.6 meters per second (10.4 miles per hour) from southwest (230°), varying between south (180°) and west (260°).
 
The temperature was 20 °C (68 °F), with a dew-point at 13 °C (55 °F).
The atmospheric pressure was 1005 hPa (29.68 inHg).
The relative humidity was 64.1%.
 
There were broken clouds at a height of 610 meters (2000 feet). The sky was overcast from a height of 2438 meter (8000 feet)
 
The overall visibility was greater than 10 kilometers (6.2 miles).
 

 
 
 
 

Country :   A   B   C   D   E   F   G   H   I   J   K   L   M   N   O   P   Q   R   S   T   U   V   W   Y   Z

 

Site Info  |  Disclaimer  |  Credits  |  Privacy
Contact us  |  Add to favorites
© 2013-2020 METARs - All rights reserved